sensor_id;sensor_type;location;lat;lon;timestamp;pressure;altitude;pressure_sealevel;temperature;humidity
54389;BME280;40975;50.390;8.640;2024-01-07T00:00:57;98684.50;;;2.63;100.00
54389;BME280;40975;50.390;8.640;2024-01-07T00:03:22;98686.06;;;2.66;100.00
54389;BME280;40975;50.390;8.640;2024-01-07T00:05:48;98689.97;;;2.60;100.00
54389;BME280;40975;50.390;8.640;2024-01-07T00:08:13;98693.84;;;2.54;100.00
54389;BME280;40975;50.390;8.640;2024-01-07T00:10:38;98694.13;;;2.62;100.00
54389;BME280;40975;50.390;8.640;2024-01-07T00:13:04;98690.41;;;2.54;100.00
54389;BME280;40975;50.390;8.640;2024-01-07T00:15:29;98696.25;;;2.57;100.00
54389;BME280;40975;50.390;8.640;2024-01-07T00:17:54;98694.97;;;2.50;100.00
54389;BME280;40975;50.390;8.640;2024-01-07T00:20:20;98702.75;;;2.52;100.00
54389;BME280;40975;50.390;8.640;2024-01-07T00:22:45;98682.63;;;2.39;100.00
54389;BME280;40975;50.390;8.640;2024-01-07T00:25:11;98704.94;;;2.45;100.00
54389;BME280;40975;50.390;8.640;2024-01-07T00:27:36;98707.75;;;2.55;100.00
54389;BME280;40975;50.390;8.640;2024-01-07T00:30:01;98711.25;;;2.55;100.00
54389;BME280;40975;50.390;8.640;2024-01-07T00:32:27;98708.41;;;2.45;100.00
54389;BME280;40975;50.390;8.640;2024-01-07T00:34:52;98708.72;;;2.54;100.00
54389;BME280;40975;50.390;8.640;2024-01-07T00:37:18;98710.38;;;2.55;100.00
54389;BME280;40975;50.390;8.640;2024-01-07T00:39:43;98719.84;;;2.57;100.00
54389;BME280;40975;50.390;8.640;2024-01-07T00:42:11;98714.91;;;2.53;100.00
54389;BME280;40975;50.390;8.640;2024-01-07T00:44:38;98721.84;;;2.54;100.00
54389;BME280;40975;50.390;8.640;2024-01-07T00:47:03;98721.91;;;2.52;100.00
54389;BME280;40975;50.390;8.640;2024-01-07T00:49:29;98723.47;;;2.55;100.00
54389;BME280;40975;50.390;8.640;2024-01-07T00:51:55;98727.16;;;2.52;100.00
54389;BME280;40975;50.390;8.640;2024-01-07T00:54:21;98723.78;;;2.50;100.00
54389;BME280;40975;50.390;8.640;2024-01-07T00:56:46;98730.53;;;2.41;100.00
54389;BME280;40975;50.390;8.640;2024-01-07T00:59:11;98726.34;;;2.52;100.00
54389;BME280;40975;50.390;8.640;2024-01-07T01:01:37;98735.56;;;2.44;100.00
54389;BME280;40975;50.390;8.640;2024-01-07T01:04:02;98733.97;;;2.42;100.00
54389;BME280;40975;50.390;8.640;2024-01-07T01:06:27;98737.22;;;2.45;100.00
54389;BME280;40975;50.390;8.640;2024-01-07T01:08:53;98742.06;;;2.52;100.00
54389;BME280;40975;50.390;8.640;2024-01-07T01:11:18;98735.13;;;2.51;100.00
54389;BME280;40975;50.390;8.640;2024-01-07T01:13:43;98738.88;;;2.46;100.00
54389;BME280;40975;50.390;8.640;2024-01-07T01:16:09;98745.41;;;2.54;100.00
54389;BME280;40975;50.390;8.640;2024-01-07T01:18:34;98741.94;;;2.53;100.00
54389;BME280;40975;50.390;8.640;2024-01-07T01:20:59;98741.94;;;2.53;100.00
54389;BME280;40975;50.390;8.640;2024-01-07T01:23:25;98745.06;;;2.45;100.00
54389;BME280;40975;50.390;8.640;2024-01-07T01:25:50;98743.00;;;2.51;100.00
54389;BME280;40975;50.390;8.640;2024-01-07T01:28:16;98749.47;;;2.45;100.00
54389;BME280;40975;50.390;8.640;2024-01-07T01:30:41;98750.53;;;2.42;100.00
54389;BME280;40975;50.390;8.640;2024-01-07T01:33:07;98751.47;;;2.41;100.00
54389;BME280;40975;50.390;8.640;2024-01-07T01:35:33;98752.09;;;2.45;100.00
54389;BME280;40975;50.390;8.640;2024-01-07T01:37:58;98759.66;;;2.49;100.00
54389;BME280;40975;50.390;8.640;2024-01-07T01:40:23;98755.16;;;2.52;100.00
54389;BME280;40975;50.390;8.640;2024-01-07T01:42:49;98752.94;;;2.45;100.00
54389;BME280;40975;50.390;8.640;2024-01-07T01:45:15;98757.34;;;2.45;100.00
54389;BME280;40975;50.390;8.640;2024-01-07T01:47:40;98762.25;;;2.49;100.00
54389;BME280;40975;50.390;8.640;2024-01-07T01:50:07;98761.31;;;2.51;100.00
54389;BME280;40975;50.390;8.640;2024-01-07T01:52:32;98765.50;;;2.40;100.00
54389;BME280;40975;50.390;8.640;2024-01-07T01:54:59;98762.78;;;2.42;100.00
54389;BME280;40975;50.390;8.640;2024-01-07T01:57:30;98767.28;;;2.40;100.00
54389;BME280;40975;50.390;8.640;2024-01-07T01:59:57;98770.63;;;2.42;100.00
54389;BME280;40975;50.390;8.640;2024-01-07T02:02:27;98767.28;;;2.40;100.00
54389;BME280;40975;50.390;8.640;2024-01-07T02:04:53;98763.84;;;2.39;100.00
54389;BME280;40975;50.390;8.640;2024-01-07T02:07:18;98765.63;;;2.39;100.00
54389;BME280;40975;50.390;8.640;2024-01-07T02:09:44;98762.69;;;2.43;100.00
54389;BME280;40975;50.390;8.640;2024-01-07T02:12:09;98766.56;;;2.38;100.00
54389;BME280;40975;50.390;8.640;2024-01-07T02:14:37;98763.50;;;2.31;100.00
54389;BME280;40975;50.390;8.640;2024-01-07T02:17:03;98768.94;;;2.28;100.00
54389;BME280;40975;50.390;8.640;2024-01-07T02:19:28;98767.56;;;2.22;100.00
54389;BME280;40975;50.390;8.640;2024-01-07T02:21:53;98774.09;;;2.29;100.00
54389;BME280;40975;50.390;8.640;2024-01-07T02:24:19;98770.50;;;2.30;100.00
54389;BME280;40975;50.390;8.640;2024-01-07T02:26:44;98776.41;;;2.34;100.00
54389;BME280;40975;50.390;8.640;2024-01-07T02:29:09;98782.34;;;2.36;100.00
54389;BME280;40975;50.390;8.640;2024-01-07T02:31:35;98784.78;;;2.26;100.00
54389;BME280;40975;50.390;8.640;2024-01-07T02:34:00;98772.94;;;2.33;100.00
54389;BME280;40975;50.390;8.640;2024-01-07T02:36:25;98777.84;;;2.25;100.00
54389;BME280;40975;50.390;8.640;2024-01-07T02:38:51;98785.06;;;2.22;100.00
54389;BME280;40975;50.390;8.640;2024-01-07T02:41:16;98776.72;;;2.29;100.00
54389;BME280;40975;50.390;8.640;2024-01-07T02:43:41;98777.97;;;2.24;100.00
54389;BME280;40975;50.390;8.640;2024-01-07T02:46:07;98773.25;;;2.29;100.00
54389;BME280;40975;50.390;8.640;2024-01-07T02:48:33;98776.16;;;2.24;100.00
54389;BME280;40975;50.390;8.640;2024-01-07T02:50:58;98780.03;;;2.18;100.00
54389;BME280;40975;50.390;8.640;2024-01-07T02:53:23;98775.44;;;2.22;100.00
54389;BME280;40975;50.390;8.640;2024-01-07T02:55:49;98777.97;;;2.24;100.00
54389;BME280;40975;50.390;8.640;2024-01-07T02:58:14;98782.47;;;2.22;100.00
54389;BME280;40975;50.390;8.640;2024-01-07T03:00:39;98775.34;;;2.24;100.00
54389;BME280;40975;50.390;8.640;2024-01-07T03:03:05;98785.72;;;2.25;100.00
54389;BME280;40975;50.390;8.640;2024-01-07T03:05:30;98788.53;;;2.22;100.00
54389;BME280;40975;50.390;8.640;2024-01-07T03:07:58;98786.75;;;2.23;100.00
54389;BME280;40975;50.390;8.640;2024-01-07T03:10:24;98788.44;;;2.24;100.00
54389;BME280;40975;50.390;8.640;2024-01-07T03:12:50;98790.00;;;2.13;100.00
54389;BME280;40975;50.390;8.640;2024-01-07T03:15:15;98787.56;;;2.10;100.00
54389;BME280;40975;50.390;8.640;2024-01-07T03:17:40;98774.88;;;2.04;100.00
54389;BME280;40975;50.390;8.640;2024-01-07T03:20:06;98792.91;;;2.09;100.00
54389;BME280;40975;50.390;8.640;2024-01-07T03:22:32;98787.22;;;2.02;100.00
54389;BME280;40975;50.390;8.640;2024-01-07T03:24:57;98788.59;;;2.08;100.00
54389;BME280;40975;50.390;8.640;2024-01-07T03:27:22;98796.59;;;2.19;100.00
54389;BME280;40975;50.390;8.640;2024-01-07T03:29:48;98798.97;;;2.09;100.00
54389;BME280;40975;50.390;8.640;2024-01-07T03:32:13;98794.38;;;2.13;100.00
54389;BME280;40975;50.390;8.640;2024-01-07T03:34:39;98796.50;;;2.21;100.00
54389;BME280;40975;50.390;8.640;2024-01-07T03:37:05;98796.50;;;2.21;100.00
54389;BME280;40975;50.390;8.640;2024-01-07T03:39:32;98798.56;;;2.15;100.00
54389;BME280;40975;50.390;8.640;2024-01-07T03:41:58;98795.75;;;2.18;100.00
54389;BME280;40975;50.390;8.640;2024-01-07T03:44:23;98797.13;;;2.24;100.00
54389;BME280;40975;50.390;8.640;2024-01-07T03:46:48;98801.13;;;2.30;100.00
54389;BME280;40975;50.390;8.640;2024-01-07T03:49:14;98796.81;;;2.29;100.00
54389;BME280;40975;50.390;8.640;2024-01-07T03:51:39;98807.09;;;2.32;100.00
54389;BME280;40975;50.390;8.640;2024-01-07T03:54:05;98807.19;;;2.30;100.00
54389;BME280;40975;50.390;8.640;2024-01-07T03:56:30;98807.84;;;2.34;100.00
54389;BME280;40975;50.390;8.640;2024-01-07T03:58:56;98805.94;;;2.36;100.00
54389;BME280;40975;50.390;8.640;2024-01-07T04:01:21;98802.78;;;2.31;100.00
54389;BME280;40975;50.390;8.640;2024-01-07T04:03:46;98811.28;;;2.35;100.00
54389;BME280;40975;50.390;8.640;2024-01-07T04:06:12;98811.28;;;2.35;100.00
54389;BME280;40975;50.390;8.640;2024-01-07T04:08:37;98807.84;;;2.34;100.00
54389;BME280;40975;50.390;8.640;2024-01-07T04:11:02;98804.66;;;2.29;100.00
54389;BME280;40975;50.390;8.640;2024-01-07T04:13:28;98818.31;;;2.34;100.00
54389;BME280;40975;50.390;8.640;2024-01-07T04:15:53;98799.53;;;2.27;100.00
54389;BME280;40975;50.390;8.640;2024-01-07T04:18:18;98816.81;;;2.30;100.00
54389;BME280;40975;50.390;8.640;2024-01-07T04:20:44;98815.59;;;2.36;100.00
54389;BME280;40975;50.390;8.640;2024-01-07T04:23:09;98823.75;;;2.31;100.00
54389;BME280;40975;50.390;8.640;2024-01-07T04:25:34;98821.13;;;2.31;100.00
54389;BME280;40975;50.390;8.640;2024-01-07T04:28:00;98824.78;;;2.28;100.00
54389;BME280;40975;50.390;8.640;2024-01-07T04:30:25;98824.78;;;2.28;100.00
54389;BME280;40975;50.390;8.640;2024-01-07T04:32:50;98825.63;;;2.29;100.00
54389;BME280;40975;50.390;8.640;2024-01-07T04:35:16;98829.38;;;2.25;100.00
54389;BME280;40975;50.390;8.640;2024-01-07T04:37:42;98824.53;;;2.18;100.00
54389;BME280;40975;50.390;8.640;2024-01-07T04:40:07;98837.16;;;2.26;100.00
54389;BME280;40975;50.390;8.640;2024-01-07T04:42:34;98835.47;;;2.25;100.00
54389;BME280;40975;50.390;8.640;2024-01-07T04:44:59;98840.81;;;2.24;100.00
54389;BME280;40975;50.390;8.640;2024-01-07T04:49:50;98836.06;;;2.16;100.00
54389;BME280;40975;50.390;8.640;2024-01-07T04:52:16;98843.63;;;2.21;100.00
54389;BME280;40975;50.390;8.640;2024-01-07T04:54:41;98856.31;;;2.27;100.00
54389;BME280;40975;50.390;8.640;2024-01-07T04:57:07;98857.06;;;2.29;100.00
54389;BME280;40975;50.390;8.640;2024-01-07T04:59:33;98853.78;;;2.25;100.00
54389;BME280;40975;50.390;8.640;2024-01-07T05:01:58;98860.09;;;2.23;100.00
54389;BME280;40975;50.390;8.640;2024-01-07T05:04:24;98858.59;;;2.18;100.00
54389;BME280;40975;50.390;8.640;2024-01-07T05:06:49;98864.56;;;2.21;100.00
54389;BME280;40975;50.390;8.640;2024-01-07T05:09:15;98864.88;;;2.16;100.00
54389;BME280;40975;50.390;8.640;2024-01-07T05:11:40;98871.78;;;2.17;100.00
54389;BME280;40975;50.390;8.640;2024-01-07T05:14:05;98875.50;;;2.27;100.00
54389;BME280;40975;50.390;8.640;2024-01-07T05:16:31;98880.16;;;2.22;100.00
54389;BME280;40975;50.390;8.640;2024-01-07T05:18:57;98878.78;;;2.16;100.00
54389;BME280;40975;50.390;8.640;2024-01-07T05:21:22;98890.75;;;2.21;100.00
54389;BME280;40975;50.390;8.640;2024-01-07T05:23:47;98893.06;;;2.25;100.00
54389;BME280;40975;50.390;8.640;2024-01-07T05:26:12;98899.81;;;2.29;100.00
54389;BME280;40975;50.390;8.640;2024-01-07T05:28:38;98905.88;;;2.30;100.00
54389;BME280;40975;50.390;8.640;2024-01-07T05:31:03;98915.13;;;2.36;100.00
54389;BME280;40975;50.390;8.640;2024-01-07T05:33:28;98912.03;;;2.29;100.00
54389;BME280;40975;50.390;8.640;2024-01-07T05:35:54;98919.31;;;2.38;100.00
54389;BME280;40975;50.390;8.640;2024-01-07T05:38:19;98916.47;;;2.28;100.00
54389;BME280;40975;50.390;8.640;2024-01-07T05:40:44;98922.03;;;2.37;100.00
54389;BME280;40975;50.390;8.640;2024-01-07T05:43:10;98921.59;;;2.30;100.00
54389;BME280;40975;50.390;8.640;2024-01-07T05:45:35;98928.81;;;2.26;100.00
54389;BME280;40975;50.390;8.640;2024-01-07T05:48:00;98936.56;;;2.28;100.00
54389;BME280;40975;50.390;8.640;2024-01-07T05:50:26;98941.97;;;2.25;100.00
54389;BME280;40975;50.390;8.640;2024-01-07T05:52:51;98945.84;;;2.19;100.00
54389;BME280;40975;50.390;8.640;2024-01-07T05:55:16;98948.38;;;2.21;100.00
54389;BME280;40975;50.390;8.640;2024-01-07T05:57:43;98957.84;;;2.09;100.00
54389;BME280;40975;50.390;8.640;2024-01-07T06:00:08;98964.13;;;1.92;100.00
54389;BME280;40975;50.390;8.640;2024-01-07T06:02:38;98971.22;;;1.90;100.00
54389;BME280;40975;50.390;8.640;2024-01-07T06:05:05;98971.81;;;1.80;100.00
54389;BME280;40975;50.390;8.640;2024-01-07T06:07:30;98974.59;;;1.77;100.00
54389;BME280;40975;50.390;8.640;2024-01-07T06:09:55;98971.91;;;1.79;100.00
54389;BME280;40975;50.390;8.640;2024-01-07T06:12:21;98981.50;;;1.78;100.00
54389;BME280;40975;50.390;8.640;2024-01-07T06:14:46;98988.53;;;1.78;100.00
54389;BME280;40975;50.390;8.640;2024-01-07T06:17:11;98991.97;;;1.78;100.00
54389;BME280;40975;50.390;8.640;2024-01-07T06:19:37;98993.84;;;1.76;100.00
54389;BME280;40975;50.390;8.640;2024-01-07T06:22:02;98994.13;;;1.71;100.00
54389;BME280;40975;50.390;8.640;2024-01-07T06:24:27;99003.94;;;1.68;100.00
54389;BME280;40975;50.390;8.640;2024-01-07T06:26:53;99015.53;;;1.64;100.00
54389;BME280;40975;50.390;8.640;2024-01-07T06:29:18;99013.47;;;1.69;100.00
54389;BME280;40975;50.390;8.640;2024-01-07T06:31:44;99018.31;;;1.75;100.00
54389;BME280;40975;50.390;8.640;2024-01-07T06:34:13;99010.50;;;1.61;100.00
54389;BME280;40975;50.390;8.640;2024-01-07T06:36:39;99016.28;;;1.66;100.00
54389;BME280;40975;50.390;8.640;2024-01-07T06:39:06;99023.19;;;1.67;100.00
54389;BME280;40975;50.390;8.640;2024-01-07T06:41:33;99024.03;;;1.67;100.00
54389;BME280;40975;50.390;8.640;2024-01-07T06:43:58;99031.59;;;1.58;100.00
54389;BME280;40975;50.390;8.640;2024-01-07T06:46:23;99032.25;;;1.61;100.00
54389;BME280;40975;50.390;8.640;2024-01-07T06:48:49;99030.75;;;1.57;100.00
54389;BME280;40975;50.390;8.640;2024-01-07T06:51:14;99047.88;;;1.63;100.00
54389;BME280;40975;50.390;8.640;2024-01-07T06:53:40;99036.19;;;1.68;100.00
54389;BME280;40975;50.390;8.640;2024-01-07T06:56:05;99037.41;;;1.63;100.00
54389;BME280;40975;50.390;8.640;2024-01-07T06:58:31;99043.47;;;1.63;100.00
54389;BME280;40975;50.390;8.640;2024-01-07T07:00:57;99050.09;;;1.69;100.00
54389;BME280;40975;50.390;8.640;2024-01-07T07:03:22;99056.28;;;1.68;100.00
54389;BME280;40975;50.390;8.640;2024-01-07T07:05:48;99052.16;;;1.64;100.00
54389;BME280;40975;50.390;8.640;2024-01-07T07:08:13;99060.75;;;1.66;100.00
54389;BME280;40975;50.390;8.640;2024-01-07T07:10:38;99056.38;;;1.66;100.00
54389;BME280;40975;50.390;8.640;2024-01-07T07:13:04;99065.81;;;1.69;100.00
54389;BME280;40975;50.390;8.640;2024-01-07T07:15:29;99073.75;;;1.67;100.00
54389;BME280;40975;50.390;8.640;2024-01-07T07:17:55;99079.44;;;1.60;100.00
54389;BME280;40975;50.390;8.640;2024-01-07T07:20:20;99079.88;;;1.52;100.00
54389;BME280;40975;50.390;8.640;2024-01-07T07:22:46;99082.31;;;1.55;100.00
54389;BME280;40975;50.390;8.640;2024-01-07T07:25:11;99080.16;;;1.47;100.00
54389;BME280;40975;50.390;8.640;2024-01-07T07:27:37;99081.28;;;1.43;100.00
54389;BME280;40975;50.390;8.640;2024-01-07T07:30:03;99086.25;;;1.48;100.00
54389;BME280;40975;50.390;8.640;2024-01-07T07:32:29;99093.97;;;1.49;100.00
54389;BME280;40975;50.390;8.640;2024-01-07T07:34:54;99097.69;;;1.45;100.00
54389;BME280;40975;50.390;8.640;2024-01-07T07:37:20;99102.53;;;1.37;100.00
54389;BME280;40975;50.390;8.640;2024-01-07T07:39:45;99110.38;;;1.37;100.00
54389;BME280;40975;50.390;8.640;2024-01-07T07:42:10;99105.41;;;1.32;100.00
54389;BME280;40975;50.390;8.640;2024-01-07T07:44:37;99115.06;;;1.32;100.00
54389;BME280;40975;50.390;8.640;2024-01-07T07:47:04;99113.19;;;1.34;100.00
54389;BME280;40975;50.390;8.640;2024-01-07T07:49:29;99124.47;;;1.34;100.00
54389;BME280;40975;50.390;8.640;2024-01-07T07:51:55;99117.16;;;1.25;100.00
54389;BME280;40975;50.390;8.640;2024-01-07T07:54:20;99118.69;;;1.29;100.00
54389;BME280;40975;50.390;8.640;2024-01-07T07:56:45;99124.75;;;1.30;100.00
54389;BME280;40975;50.390;8.640;2024-01-07T07:59:11;99131.25;;;1.22;100.00
54389;BME280;40975;50.390;8.640;2024-01-07T08:01:36;99126.38;;;1.16;100.00
54389;BME280;40975;50.390;8.640;2024-01-07T08:04:02;99133.28;;;1.17;100.00
54389;BME280;40975;50.390;8.640;2024-01-07T08:06:30;99133.47;;;1.14;100.00
54389;BME280;40975;50.390;8.640;2024-01-07T08:08:55;99140.47;;;1.14;100.00
54389;BME280;40975;50.390;8.640;2024-01-07T08:11:20;99140.47;;;1.14;100.00
54389;BME280;40975;50.390;8.640;2024-01-07T08:13:46;99149.72;;;1.19;100.00
54389;BME280;40975;50.390;8.640;2024-01-07T08:16:11;99144.00;;;1.13;100.00
54389;BME280;40975;50.390;8.640;2024-01-07T08:18:36;99146.72;;;1.11;100.00
54389;BME280;40975;50.390;8.640;2024-01-07T08:21:02;99156.16;;;1.14;100.00
54389;BME280;40975;50.390;8.640;2024-01-07T08:23:27;99152.88;;;1.10;100.00
54389;BME280;40975;50.390;8.640;2024-01-07T08:25:53;99152.88;;;1.10;100.00
54389;BME280;40975;50.390;8.640;2024-01-07T08:28:18;99155.63;;;1.07;100.00
54389;BME280;40975;50.390;8.640;2024-01-07T08:30:44;99159.44;;;1.17;100.00
54389;BME280;40975;50.390;8.640;2024-01-07T08:33:10;99169.56;;;1.07;100.00
54389;BME280;40975;50.390;8.640;2024-01-07T08:35:35;99170.13;;;1.13;100.00
54389;BME280;40975;50.390;8.640;2024-01-07T08:38:00;99167.13;;;1.04;100.00
54389;BME280;40975;50.390;8.640;2024-01-07T08:40:25;99171.31;;;1.07;100.00
54389;BME280;40975;50.390;8.640;2024-01-07T08:42:51;99173.78;;;1.10;100.00
54389;BME280;40975;50.390;8.640;2024-01-07T08:45:16;99182.53;;;1.09;100.00
54389;BME280;40975;50.390;8.640;2024-01-07T08:47:42;99187.69;;;1.11;100.00
54389;BME280;40975;50.390;8.640;2024-01-07T08:50:07;99183.16;;;1.14;100.00
54389;BME280;40975;50.390;8.640;2024-01-07T08:52:33;99185.75;;;1.14;100.00
54389;BME280;40975;50.390;8.640;2024-01-07T08:55:01;99188.38;;;1.14;100.00
54389;BME280;40975;50.390;8.640;2024-01-07T08:57:27;99188.44;;;1.13;100.00
54389;BME280;40975;50.390;8.640;2024-01-07T08:59:52;99198.13;;;1.11;100.00
54389;BME280;40975;50.390;8.640;2024-01-07T09:02:17;99201.50;;;1.13;100.00
54389;BME280;40975;50.390;8.640;2024-01-07T09:04:43;99198.13;;;1.11;100.00
54389;BME280;40975;50.390;8.640;2024-01-07T09:07:08;99203.44;;;1.09;100.00
54389;BME280;40975;50.390;8.640;2024-01-07T09:09:33;99212.97;;;1.10;100.00
54389;BME280;40975;50.390;8.640;2024-01-07T09:11:59;99210.53;;;1.07;100.00
54389;BME280;40975;50.390;8.640;2024-01-07T09:14:25;99212.06;;;1.11;100.00
54389;BME280;40975;50.390;8.640;2024-01-07T09:16:51;99219.13;;;1.09;100.00
54389;BME280;40975;50.390;8.640;2024-01-07T09:19:16;99221.91;;;1.06;100.00
54389;BME280;40975;50.390;8.640;2024-01-07T09:21:42;99225.03;;;1.13;100.00
54389;BME280;40975;50.390;8.640;2024-01-07T09:24:09;99232.31;;;1.07;100.00
54389;BME280;40975;50.390;8.640;2024-01-07T09:26:34;99236.34;;;1.13;100.00
54389;BME280;40975;50.390;8.640;2024-01-07T09:28:59;99233.13;;;1.08;100.00
54389;BME280;40975;50.390;8.640;2024-01-07T09:31:25;99242.41;;;1.14;100.00
54389;BME280;40975;50.390;8.640;2024-01-07T09:33:50;99245.13;;;1.12;100.00
54389;BME280;40975;50.390;8.640;2024-01-07T09:36:15;99239.81;;;1.14;100.00
54389;BME280;40975;50.390;8.640;2024-01-07T09:38:41;99231.13;;;0.97;100.00
54389;BME280;40975;50.390;8.640;2024-01-07T09:41:07;99241.59;;;1.13;100.00
54389;BME280;40975;50.390;8.640;2024-01-07T09:43:32;99251.13;;;1.14;100.00
54389;BME280;40975;50.390;8.640;2024-01-07T09:45:59;99252.97;;;1.12;100.00
54389;BME280;40975;50.390;8.640;2024-01-07T09:48:24;99255.56;;;1.12;100.00
54389;BME280;40975;50.390;8.640;2024-01-07T09:50:51;99254.38;;;1.02;100.00
54389;BME280;40975;50.390;8.640;2024-01-07T09:53:20;99258.59;;;1.04;100.00
54389;BME280;40975;50.390;8.640;2024-01-07T09:58:32;99262.22;;;1.02;100.00
54389;BME280;40975;50.390;8.640;2024-01-07T10:00:57;99260.13;;;1.08;100.00
54389;BME280;40975;50.390;8.640;2024-01-07T10:03:23;99264.59;;;1.06;100.00
54389;BME280;40975;50.390;8.640;2024-01-07T10:05:49;99258.75;;;1.01;100.00
54389;BME280;40975;50.390;8.640;2024-01-07T10:08:15;99260.88;;;0.95;100.00
54389;BME280;40975;50.390;8.640;2024-01-07T10:10:40;99269.69;;;0.92;100.00
54389;BME280;40975;50.390;8.640;2024-01-07T10:13:06;99267.03;;;0.93;100.00
54389;BME280;40975;50.390;8.640;2024-01-07T10:15:32;99268.78;;;0.93;100.00
54389;BME280;40975;50.390;8.640;2024-01-07T10:18:05;99279.56;;;0.87;100.00
54389;BME280;40975;50.390;8.640;2024-01-07T10:20:34;99280.34;;;0.89;100.00
54389;BME280;40975;50.390;8.640;2024-01-07T10:23:01;99283.78;;;0.89;100.00
54389;BME280;40975;50.390;8.640;2024-01-07T10:25:30;99281.75;;;0.79;100.00
54389;BME280;40975;50.390;8.640;2024-01-07T10:27:59;99277.59;;;0.74;100.00
54389;BME280;40975;50.390;8.640;2024-01-07T10:30:24;99285.09;;;0.81;100.00
54389;BME280;40975;50.390;8.640;2024-01-07T10:32:55;99269.66;;;0.76;100.00
54389;BME280;40975;50.390;8.640;2024-01-07T10:35:32;99275.06;;;0.73;100.00
54389;BME280;40975;50.390;8.640;2024-01-07T10:37:59;99275.81;;;0.75;100.00
54389;BME280;40975;50.390;8.640;2024-01-07T10:40:26;99287.50;;;0.68;100.00
54389;BME280;40975;50.390;8.640;2024-01-07T10:42:52;99282.06;;;0.72;100.00
54389;BME280;40975;50.390;8.640;2024-01-07T10:45:19;99280.97;;;0.76;100.00
54389;BME280;40975;50.390;8.640;2024-01-07T10:47:48;99280.97;;;0.76;100.00
54389;BME280;40975;50.390;8.640;2024-01-07T10:50:16;99297.00;;;0.86;100.00
54389;BME280;40975;50.390;8.640;2024-01-07T10:52:43;99293.19;;;0.76;100.00
54389;BME280;40975;50.390;8.640;2024-01-07T10:55:14;99291.34;;;0.78;100.00
54389;BME280;40975;50.390;8.640;2024-01-07T10:57:46;99284.75;;;0.71;100.00
54389;BME280;40975;50.390;8.640;2024-01-07T11:00:13;99295.75;;;0.60;100.00
54389;BME280;40975;50.390;8.640;2024-01-07T11:05:36;99285.16;;;0.63;100.00
54389;BME280;40975;50.390;8.640;2024-01-07T11:08:23;99286.84;;;0.64;100.00
54389;BME280;40975;50.390;8.640;2024-01-07T11:10:55;99291.28;;;0.62;100.00
54389;BME280;40975;50.390;8.640;2024-01-07T11:13:38;99285.16;;;0.63;100.00
54389;BME280;40975;50.390;8.640;2024-01-07T11:16:05;99290.47;;;0.61;100.00
54389;BME280;40975;50.390;8.640;2024-01-07T11:18:38;99299.84;;;0.48;100.00
54389;BME280;40975;50.390;8.640;2024-01-07T11:21:03;99300.28;;;0.56;100.00
54389;BME280;40975;50.390;8.640;2024-01-07T11:23:36;99297.16;;;0.50;100.00
54389;BME280;40975;50.390;8.640;2024-01-07T11:26:07;99292.09;;;0.29;100.00
54389;BME280;40975;50.390;8.640;2024-01-07T11:31:10;99295.94;;;0.39;100.00
54389;BME280;40975;50.390;8.640;2024-01-07T11:33:39;99294.47;;;0.34;100.00
54389;BME280;40975;50.390;8.640;2024-01-07T11:36:05;99302.81;;;0.40;100.00
54389;BME280;40975;50.390;8.640;2024-01-07T11:38:30;99309.38;;;0.32;100.00
54389;BME280;40975;50.390;8.640;2024-01-07T11:40:57;99298.63;;;0.38;100.00
54389;BME280;40975;50.390;8.640;2024-01-07T11:43:22;99308.03;;;0.40;100.00
54389;BME280;40975;50.390;8.640;2024-01-07T11:45:51;99304.00;;;0.35;100.00
54389;BME280;40975;50.390;8.640;2024-01-07T11:48:18;99308.13;;;0.39;100.00
54389;BME280;40975;50.390;8.640;2024-01-07T11:50:43;99303.59;;;0.42;100.00
54389;BME280;40975;50.390;8.640;2024-01-07T11:53:08;99299.69;;;0.34;100.00
54389;BME280;40975;50.390;8.640;2024-01-07T11:55:36;99317.50;;;0.25;100.00
54389;BME280;40975;50.390;8.640;2024-01-07T11:58:02;99305.06;;;0.30;100.00
54389;BME280;40975;50.390;8.640;2024-01-07T12:00:31;99313.50;;;0.36;100.00
54389;BME280;40975;50.390;8.640;2024-01-07T12:02:56;99310.59;;;0.42;100.00
54389;BME280;40975;50.390;8.640;2024-01-07T12:05:21;99316.84;;;0.39;100.00
54389;BME280;40975;50.390;8.640;2024-01-07T12:07:46;99324.13;;;0.33;100.00
54389;BME280;40975;50.390;8.640;2024-01-07T12:10:12;99321.19;;;0.39;100.00
54389;BME280;40975;50.390;8.640;2024-01-07T12:12:41;99319.72;;;0.33;100.00
54389;BME280;40975;50.390;8.640;2024-01-07T12:15:08;99321.66;;;0.29;100.00
54389;BME280;40975;50.390;8.640;2024-01-07T12:17:33;99321.88;;;0.25;100.00
54389;BME280;40975;50.390;8.640;2024-01-07T12:20:00;99332.41;;;0.23;100.00
54389;BME280;40975;50.390;8.640;2024-01-07T12:22:27;99334.53;;;0.15;100.00
54389;BME280;40975;50.390;8.640;2024-01-07T12:25:22;99325.19;;;0.11;100.00
54389;BME280;40975;50.390;8.640;2024-01-07T12:27:49;99328.69;;;0.10;100.00
54389;BME280;40975;50.390;8.640;2024-01-07T12:30:18;99341.06;;;0.06;100.00
54389;BME280;40975;50.390;8.640;2024-01-07T12:32:44;99338.59;;;0.03;100.00
54389;BME280;40975;50.390;8.640;2024-01-07T12:35:10;99334.97;;;0.06;100.00
54389;BME280;40975;50.390;8.640;2024-01-07T12:37:37;99332.31;;;0.07;100.00
54389;BME280;40975;50.390;8.640;2024-01-07T12:40:02;99335.38;;;-0.02;100.00
54389;BME280;40975;50.390;8.640;2024-01-07T12:42:28;99340.97;;;-0.10;100.00
54389;BME280;40975;50.390;8.640;2024-01-07T12:44:53;99339.69;;;-0.01;100.00
54389;BME280;40975;50.390;8.640;2024-01-07T12:47:19;99336.91;;;0.02;100.00
54389;BME280;40975;50.390;8.640;2024-01-07T12:49:44;99339.34;;;-0.12;100.00
54389;BME280;40975;50.390;8.640;2024-01-07T12:52:10;99350.13;;;-0.20;100.00
54389;BME280;40975;50.390;8.640;2024-01-07T12:54:36;99340.69;;;-0.23;100.00
54389;BME280;40975;50.390;8.640;2024-01-07T12:57:02;99344.31;;;-0.25;100.00
54389;BME280;40975;50.390;8.640;2024-01-07T12:59:27;99343.22;;;-0.21;100.00
54389;BME280;40975;50.390;8.640;2024-01-07T13:01:52;99361.47;;;-0.21;100.00
54389;BME280;40975;50.390;8.640;2024-01-07T13:04:18;99359.75;;;-0.21;100.00